createdAt,value
2022-11-25T00:00:02.790Z,51.323433
2022-11-25T00:01:02.783Z,51.323425
2022-11-25T00:02:02.752Z,51.323441
2022-11-25T00:03:02.761Z,51.323410
2022-11-25T00:04:02.698Z,51.323444
2022-11-25T00:05:02.777Z,51.323418
2022-11-25T00:06:02.709Z,51.323406
2022-11-25T00:07:02.739Z,51.323425
2022-11-25T00:08:02.630Z,51.323433
2022-11-25T00:09:02.610Z,51.323414
2022-11-25T00:10:02.594Z,51.323421
2022-11-25T00:11:02.599Z,51.323425
2022-11-25T00:12:02.554Z,51.323429
2022-11-25T00:13:02.537Z,51.323448
2022-11-25T00:14:02.554Z,51.323437
2022-11-25T00:15:02.497Z,51.323421
2022-11-25T00:16:02.543Z,51.323402
2022-11-25T00:17:02.509Z,51.323383
2022-11-25T00:18:02.443Z,51.323418
2022-11-25T00:19:02.432Z,51.323399
2022-11-25T00:20:02.410Z,51.323433
2022-11-25T00:21:02.416Z,51.323421
2022-11-25T00:22:02.374Z,51.323406
2022-11-25T00:23:02.357Z,51.323421
2022-11-25T00:24:02.324Z,51.323387
2022-11-25T00:25:02.308Z,51.323421
2022-11-25T00:26:02.319Z,51.323429
2022-11-25T00:27:02.269Z,51.323387
2022-11-25T00:28:02.255Z,51.323425
2022-11-25T00:29:02.241Z,51.323437
2022-11-25T00:30:02.225Z,51.323364
2022-11-25T00:31:02.224Z,51.323372
2022-11-25T00:32:02.220Z,51.323322
2022-11-25T00:33:02.157Z,51.323395
2022-11-25T00:34:02.163Z,51.323387
2022-11-25T00:35:02.121Z,51.323406
2022-11-25T00:36:02.150Z,51.323353
2022-11-25T00:37:02.086Z,51.323357
2022-11-25T00:38:02.073Z,51.323387
2022-11-25T00:39:02.050Z,51.323444
2022-11-25T00:40:02.058Z,51.323410
2022-11-25T00:41:02.033Z,51.323414
2022-11-25T00:42:01.994Z,51.323383
2022-11-25T00:43:01.972Z,51.323402
2022-11-25T00:44:01.959Z,51.323410
2022-11-25T00:45:01.955Z,51.323402
2022-11-25T00:46:01.990Z,51.323380
2022-11-25T00:47:01.924Z,51.323357
2022-11-25T00:48:01.880Z,51.323376
2022-11-25T00:49:01.880Z,51.323391
2022-11-25T00:50:01.848Z,51.323383
2022-11-25T00:51:01.864Z,51.323360
2022-11-25T00:52:01.811Z,51.323364
2022-11-25T00:53:01.802Z,51.323376
2022-11-25T00:54:01.801Z,51.323391
2022-11-25T00:55:01.753Z,51.323376
2022-11-25T00:56:01.761Z,51.323380
2022-11-25T00:57:01.763Z,51.323387
2022-11-25T00:58:01.698Z,51.323414
2022-11-25T00:59:01.686Z,51.323406
2022-11-25T01:00:01.672Z,51.323406
2022-11-25T01:01:01.740Z,51.323395
2022-11-25T01:02:01.737Z,51.323383
2022-11-25T01:03:01.607Z,51.323372
2022-11-25T01:04:01.587Z,51.323383
2022-11-25T01:05:01.569Z,51.323376
2022-11-25T01:06:01.574Z,51.323376
2022-11-25T01:07:01.537Z,51.323368
2022-11-25T01:08:01.516Z,51.323360
2022-11-25T01:09:01.497Z,51.323349
2022-11-25T01:10:01.480Z,51.323372
2022-11-25T01:11:01.487Z,51.323391
2022-11-25T01:12:01.455Z,51.323399
2022-11-25T01:13:01.432Z,51.323387
2022-11-25T01:14:01.985Z,51.323399
2022-11-25T01:15:02.412Z,51.323421
2022-11-25T01:16:01.455Z,51.323414
2022-11-25T01:17:01.353Z,51.323429
2022-11-25T01:18:01.337Z,51.323399
2022-11-25T01:19:01.312Z,51.323395
2022-11-25T01:20:01.293Z,51.323410
2022-11-25T01:21:01.304Z,51.323410
2022-11-25T01:22:01.260Z,51.323402
2022-11-25T01:23:01.243Z,51.323402
2022-11-25T01:24:01.240Z,51.323406
2022-11-25T01:25:01.210Z,51.323402
2022-11-25T01:26:01.207Z,51.323410
2022-11-25T01:27:01.162Z,51.323406
2022-11-25T01:28:01.156Z,51.323399
2022-11-25T01:29:01.129Z,51.323418
2022-11-25T01:30:01.110Z,51.323406
2022-11-25T01:31:01.115Z,51.323387
2022-11-25T01:32:01.196Z,51.323429
2022-11-25T01:33:01.053Z,51.323441
2022-11-25T01:34:01.034Z,51.323387
2022-11-25T01:35:01.043Z,51.323391
2022-11-25T01:36:00.999Z,51.323414
2022-11-25T01:37:00.976Z,51.323391
2022-11-25T01:38:00.962Z,51.323387
2022-11-25T01:39:00.944Z,51.323410
2022-11-25T01:40:00.946Z,51.323433
2022-11-25T01:41:00.942Z,51.323402
2022-11-25T01:42:00.888Z,51.323380
2022-11-25T01:43:00.871Z,51.323364
2022-11-25T01:44:00.852Z,51.323376
2022-11-25T01:45:00.828Z,51.323292
2022-11-25T01:46:00.866Z,51.323357
2022-11-25T01:47:00.798Z,51.323357
2022-11-25T01:48:00.773Z,51.323395
2022-11-25T01:49:00.755Z,51.323391
2022-11-25T01:50:00.752Z,51.323376
2022-11-25T01:51:00.758Z,51.323368
2022-11-25T01:52:00.702Z,51.323360
2022-11-25T01:53:00.688Z,51.323391
2022-11-25T01:54:00.665Z,51.323383
2022-11-25T01:55:00.647Z,51.323399
2022-11-25T01:56:00.657Z,51.323437
2022-11-25T01:57:00.610Z,51.323410
2022-11-25T01:58:00.587Z,51.323402
2022-11-25T01:59:00.576Z,51.323425
2022-11-25T02:00:00.554Z,51.323429
2022-11-25T02:01:00.606Z,51.323391
2022-11-25T02:02:00.613Z,51.323410
2022-11-25T02:03:00.504Z,51.323383
2022-11-25T02:04:00.478Z,51.323406
2022-11-25T02:05:00.461Z,51.323418
2022-11-25T02:06:00.470Z,51.323414
2022-11-25T02:07:00.423Z,51.323391
2022-11-25T02:08:00.408Z,51.323383
2022-11-25T02:09:00.392Z,51.323410
2022-11-25T02:10:00.371Z,51.323418
2022-11-25T02:11:00.386Z,51.323444
2022-11-25T02:12:00.330Z,51.323429
2022-11-25T02:13:00.327Z,51.323429
2022-11-25T02:14:00.292Z,51.323402
2022-11-25T02:15:00.273Z,51.323406
2022-11-25T02:16:00.280Z,51.323410
2022-11-25T02:17:00.302Z,51.323418
2022-11-25T02:18:00.217Z,51.323406
2022-11-25T02:19:00.196Z,51.323410
2022-11-25T02:20:00.188Z,51.323395
2022-11-25T02:21:00.182Z,51.323395
2022-11-25T02:22:00.136Z,51.323414
2022-11-25T02:23:00.124Z,51.323414
2022-11-25T02:24:00.104Z,51.323399
2022-11-25T02:25:00.090Z,51.323391
2022-11-25T02:26:00.092Z,51.323437
2022-11-25T02:27:00.036Z,51.323418
2022-11-25T02:28:00.027Z,51.323399
2022-11-25T02:29:00.001Z,51.323406
2022-11-25T02:29:59.985Z,51.323399
2022-11-25T02:31:00.059Z,51.323395
2022-11-25T02:32:00.007Z,51.323399
2022-11-25T02:32:59.936Z,51.323399
2022-11-25T02:33:59.908Z,51.323406
2022-11-25T02:34:59.896Z,51.323410
2022-11-25T02:35:59.897Z,51.323391
2022-11-25T02:36:59.855Z,51.323402
2022-11-25T02:37:59.831Z,51.323410
2022-11-25T02:38:59.819Z,51.323429
2022-11-25T02:39:59.793Z,51.323425
2022-11-25T02:40:59.806Z,51.323418
2022-11-25T02:41:59.759Z,51.323414
2022-11-25T02:42:59.742Z,51.323425
2022-11-25T02:43:59.736Z,51.323425
2022-11-25T02:44:59.707Z,51.323418
2022-11-25T02:45:59.809Z,51.323421
2022-11-25T02:46:59.673Z,51.323444
2022-11-25T02:47:59.671Z,51.323441
2022-11-25T02:49:15.021Z,51.323463
2022-11-25T02:50:01.617Z,51.323441
2022-11-25T02:50:59.647Z,51.323437
2022-11-25T02:51:59.600Z,51.323433
2022-11-25T02:52:59.593Z,51.323437
2022-11-25T02:53:59.543Z,51.323456
2022-11-25T02:54:59.521Z,51.323437
2022-11-25T02:55:59.499Z,51.323421
2022-11-25T02:56:59.507Z,51.323441
2022-11-25T02:57:59.466Z,51.323441
2022-11-25T02:58:59.496Z,51.323471
2022-11-25T02:59:59.429Z,51.323475
2022-11-25T03:00:59.442Z,51.323471
2022-11-25T03:01:59.458Z,51.323433
2022-11-25T03:02:59.372Z,51.323452
2022-11-25T03:03:59.357Z,51.323463
2022-11-25T03:04:59.332Z,51.323456
2022-11-25T03:05:59.316Z,51.323460
2022-11-25T03:06:59.323Z,51.323467
2022-11-25T03:07:59.276Z,51.323460
2022-11-25T03:08:59.260Z,51.323471
2022-11-25T03:09:59.251Z,51.323463
2022-11-25T03:10:59.223Z,51.323460
2022-11-25T03:11:59.229Z,51.323452
2022-11-25T03:12:59.190Z,51.323441
2022-11-25T03:13:59.169Z,51.323463
2022-11-25T03:14:59.153Z,51.323448
2022-11-25T03:15:59.140Z,51.323421
2022-11-25T03:16:59.168Z,51.323418
2022-11-25T03:17:59.091Z,51.323448
2022-11-25T03:18:59.075Z,51.323479
2022-11-25T03:19:59.054Z,51.323486
2022-11-25T03:20:59.038Z,51.323502
2022-11-25T03:21:59.041Z,51.323509
2022-11-25T03:22:58.998Z,51.323532
2022-11-25T03:23:58.977Z,51.323471
2022-11-25T03:24:58.959Z,51.323479
2022-11-25T03:25:58.946Z,51.323486
2022-11-25T03:26:58.951Z,51.323524
2022-11-25T03:27:58.901Z,51.323555
2022-11-25T03:28:58.893Z,51.323517
2022-11-25T03:29:58.863Z,51.323521
2022-11-25T03:30:58.846Z,51.323463
2022-11-25T03:31:58.898Z,51.323452
2022-11-25T03:32:58.806Z,51.323463
2022-11-25T03:33:58.783Z,51.323444
2022-11-25T03:34:58.768Z,51.323479
2022-11-25T03:35:58.749Z,51.323467
2022-11-25T03:36:58.789Z,51.323479
2022-11-25T03:37:58.708Z,51.323555
2022-11-25T03:38:58.696Z,51.323483
2022-11-25T03:39:58.684Z,51.323483
2022-11-25T03:40:58.648Z,51.323494
2022-11-25T03:41:58.663Z,51.323467
2022-11-25T03:42:58.614Z,51.323479
2022-11-25T03:43:58.604Z,51.323437
2022-11-25T03:44:58.577Z,51.323437
2022-11-25T03:45:58.638Z,51.323486
2022-11-25T03:46:58.569Z,51.323479
2022-11-25T03:47:58.521Z,51.323479
2022-11-25T03:48:58.520Z,51.323467
2022-11-25T03:49:58.496Z,51.323460
2022-11-25T03:50:58.464Z,51.323475
2022-11-25T03:51:58.506Z,51.323475
2022-11-25T03:52:58.431Z,51.323463
2022-11-25T03:53:58.418Z,51.323456
2022-11-25T03:54:58.423Z,51.323483
2022-11-25T03:55:58.385Z,51.323463
2022-11-25T03:56:58.388Z,51.323467
2022-11-25T03:57:58.334Z,51.323463
2022-11-25T03:58:58.349Z,51.323483
2022-11-25T03:59:58.300Z,51.323486
2022-11-25T04:00:58.334Z,51.323483
2022-11-25T04:01:58.340Z,51.323486
2022-11-25T04:02:58.245Z,51.323463
2022-11-25T04:03:58.228Z,51.323494
2022-11-25T04:04:58.224Z,51.323490
2022-11-25T04:05:58.193Z,51.323475
2022-11-25T04:06:58.197Z,51.323471
2022-11-25T04:07:58.407Z,51.323483
2022-11-25T04:08:59.148Z,51.323467
2022-11-25T04:09:58.125Z,51.323467
2022-11-25T04:10:58.096Z,51.323456
2022-11-25T04:11:58.119Z,51.323452
2022-11-25T04:12:58.055Z,51.323444
2022-11-25T04:13:58.038Z,51.323441
2022-11-25T04:14:58.019Z,51.323471
2022-11-25T04:15:58.000Z,51.323460
2022-11-25T04:16:58.040Z,51.323452
2022-11-25T04:17:57.975Z,51.323479
2022-11-25T04:18:57.946Z,51.323456
2022-11-25T04:19:57.919Z,51.323441
2022-11-25T04:20:57.904Z,51.323456
2022-11-25T04:21:57.913Z,51.323444
2022-11-25T04:22:57.880Z,51.323421
2022-11-25T04:23:57.846Z,51.323410
2022-11-25T04:24:57.832Z,51.323437
2022-11-25T04:25:57.812Z,51.323444
2022-11-25T04:26:57.831Z,51.323448
2022-11-25T04:27:57.776Z,51.323452
2022-11-25T04:28:57.760Z,51.323452
2022-11-25T04:29:57.738Z,51.323448
2022-11-25T04:30:57.752Z,51.323456
2022-11-25T04:31:57.723Z,51.323456
2022-11-25T04:32:57.684Z,51.323437
2022-11-25T04:33:57.654Z,51.323460
2022-11-25T04:34:57.639Z,51.323467
2022-11-25T04:35:57.620Z,51.323437
2022-11-25T04:36:57.720Z,51.323456
2022-11-25T04:37:57.591Z,51.323444
2022-11-25T04:38:57.561Z,51.323448
2022-11-25T04:39:57.541Z,51.323471
2022-11-25T04:40:57.524Z,51.323494
2022-11-25T04:41:57.530Z,51.323456
2022-11-25T04:43:03.435Z,51.323471
2022-11-25T04:43:59.462Z,51.323467
2022-11-25T04:45:21.553Z,51.323463
2022-11-25T04:46:13.536Z,51.323467
2022-11-25T04:46:59.509Z,51.323475
2022-11-25T04:47:57.385Z,51.323463
2022-11-25T04:48:57.375Z,51.323471
2022-11-25T04:49:57.355Z,51.323460
2022-11-25T04:50:57.346Z,51.323471
2022-11-25T04:51:57.341Z,51.323460
2022-11-25T04:52:57.302Z,51.323486
2022-11-25T04:53:57.285Z,51.323475
2022-11-25T04:54:57.274Z,51.323429
2022-11-25T04:55:57.238Z,51.323433
2022-11-25T04:56:57.244Z,51.323456
2022-11-25T04:57:57.205Z,51.323448
2022-11-25T04:58:57.183Z,51.323425
2022-11-25T04:59:57.166Z,51.323429
2022-11-25T05:00:57.191Z,51.323463
2022-11-25T05:01:57.223Z,51.323448
2022-11-25T05:02:57.114Z,51.323421
2022-11-25T05:03:57.801Z,51.323452
2022-11-25T05:04:58.078Z,51.323444
2022-11-25T05:05:57.057Z,51.323460
2022-11-25T05:06:57.060Z,51.323441
2022-11-25T05:07:57.075Z,51.323441
2022-11-25T05:08:56.996Z,51.323433
2022-11-25T05:09:56.980Z,51.323460
2022-11-25T05:10:56.959Z,51.323429
2022-11-25T05:11:56.966Z,51.323418
2022-11-25T05:12:56.923Z,51.323395
2022-11-25T05:13:56.908Z,51.323395
2022-11-25T05:14:56.883Z,51.323406
2022-11-25T05:15:56.872Z,51.323433
2022-11-25T05:16:56.889Z,51.323410
2022-11-25T05:17:56.829Z,51.323402
2022-11-25T05:18:56.821Z,51.323410
2022-11-25T05:19:56.794Z,51.323418
2022-11-25T05:20:56.854Z,51.323448
2022-11-25T05:21:56.782Z,51.323418
2022-11-25T05:22:56.735Z,51.323383
2022-11-25T05:23:56.765Z,51.323399
2022-11-25T05:24:56.720Z,51.323399
2022-11-25T05:25:56.676Z,51.323425
2022-11-25T05:26:56.662Z,51.323441
2022-11-25T05:27:56.682Z,51.323437
2022-11-25T05:28:56.626Z,51.323421
2022-11-25T05:29:56.614Z,51.323406
2022-11-25T05:30:56.666Z,51.323421
2022-11-25T05:31:56.566Z,51.323421
2022-11-25T05:32:56.573Z,51.323425
2022-11-25T05:33:56.535Z,51.323437
2022-11-25T05:34:56.513Z,51.323421
2022-11-25T05:35:56.537Z,51.323410
2022-11-25T05:36:56.504Z,51.323402
2022-11-25T05:37:56.494Z,51.323399
2022-11-25T05:38:56.457Z,51.323402
2022-11-25T05:39:56.421Z,51.323421
2022-11-25T05:40:56.424Z,51.323418
2022-11-25T05:41:56.383Z,51.323402
2022-11-25T05:42:56.398Z,51.323402
2022-11-25T05:43:56.346Z,51.323410
2022-11-25T05:44:56.324Z,51.323402
2022-11-25T05:45:56.355Z,51.323395
2022-11-25T05:46:56.311Z,51.323399
2022-11-25T05:47:56.292Z,51.323418
2022-11-25T05:48:56.254Z,51.323418
2022-11-25T05:49:56.238Z,51.323402
2022-11-25T05:50:56.214Z,51.323399
2022-11-25T05:51:56.196Z,51.323410
2022-11-25T05:52:56.212Z,51.323429
2022-11-25T05:53:56.157Z,51.323425
2022-11-25T05:54:57.572Z,51.323414
2022-11-25T05:55:57.125Z,51.323410
2022-11-25T05:56:56.104Z,51.323418
2022-11-25T05:57:56.105Z,51.323425
2022-11-25T05:58:56.064Z,51.323444
2022-11-25T05:59:56.049Z,51.323444
2022-11-25T06:00:56.024Z,51.323463
2022-11-25T06:01:56.088Z,51.323418
2022-11-25T06:02:56.088Z,51.323425
2022-11-25T06:03:55.985Z,51.323444
2022-11-25T06:04:55.945Z,51.323429
2022-11-25T06:05:55.935Z,51.323452
2022-11-25T06:06:55.906Z,51.323421
2022-11-25T06:07:55.981Z,51.323425
2022-11-25T06:08:56.868Z,51.323395
2022-11-25T06:09:58.798Z,51.323425
2022-11-25T06:10:57.845Z,51.323437
2022-11-25T06:11:55.814Z,51.323410
2022-11-25T06:12:55.828Z,51.323372
2022-11-25T06:13:55.788Z,51.323421
2022-11-25T06:14:55.769Z,51.323421
2022-11-25T06:15:55.809Z,51.323425
2022-11-25T06:16:55.739Z,51.323410
2022-11-25T06:17:55.735Z,51.323441
2022-11-25T06:18:55.689Z,51.323456
2022-11-25T06:19:55.673Z,51.323410
2022-11-25T06:20:55.653Z,51.323437
2022-11-25T06:21:55.641Z,51.323437
2022-11-25T06:22:55.641Z,51.323429
2022-11-25T06:23:55.595Z,51.323463
2022-11-25T06:25:01.864Z,51.323414
2022-11-25T06:25:57.570Z,51.323433
2022-11-25T06:26:55.540Z,51.323433
2022-11-25T06:28:12.435Z,51.323437
2022-11-25T06:28:57.500Z,51.323463
2022-11-25T06:29:55.483Z,51.323463
2022-11-25T06:30:55.520Z,51.323452
2022-11-25T06:31:55.467Z,51.323463
2022-11-25T06:32:55.465Z,51.323448
2022-11-25T06:33:55.440Z,51.323425
2022-11-25T06:34:55.400Z,51.323425
2022-11-25T06:35:55.422Z,51.323429
2022-11-25T06:36:55.360Z,51.323414
2022-11-25T06:37:55.380Z,51.323418
2022-11-25T06:38:55.322Z,51.323425
2022-11-25T06:39:55.297Z,51.323429
2022-11-25T06:40:59.170Z,51.323433
2022-11-25T06:41:57.263Z,51.323456
2022-11-25T06:42:55.279Z,51.323448
2022-11-25T06:43:55.242Z,51.323410
2022-11-25T06:44:55.216Z,51.323437
2022-11-25T06:45:55.222Z,51.323463
2022-11-25T06:46:55.217Z,51.323460
2022-11-25T06:47:55.196Z,51.323418
2022-11-25T06:48:55.161Z,51.323418
2022-11-25T06:49:55.122Z,51.323437
2022-11-25T06:50:55.111Z,51.323410
2022-11-25T06:51:55.097Z,51.323395
2022-11-25T06:52:55.109Z,51.323402
2022-11-25T06:53:55.087Z,51.323402
2022-11-25T06:54:55.061Z,51.323380
2022-11-25T06:55:55.029Z,51.323387
2022-11-25T06:56:54.998Z,51.323399
2022-11-25T06:58:08.451Z,51.323437
2022-11-25T06:58:56.962Z,51.323524
2022-11-25T06:59:54.955Z,51.323425
2022-11-25T07:00:54.985Z,51.323395
2022-11-25T07:01:55.002Z,51.323341
2022-11-25T07:02:54.987Z,51.323471
2022-11-25T07:03:54.889Z,51.323452
2022-11-25T07:04:54.875Z,51.323460
2022-11-25T07:05:54.831Z,51.323494
2022-11-25T07:06:55.827Z,51.323425
2022-11-25T07:07:54.873Z,51.323421
2022-11-25T07:08:54.777Z,51.323429
2022-11-25T07:09:54.762Z,51.323402
2022-11-25T07:10:54.732Z,51.323441
2022-11-25T07:11:54.726Z,51.323452
2022-11-25T07:12:54.725Z,51.323463
2022-11-25T07:13:54.700Z,51.323463
2022-11-25T07:14:54.659Z,51.323433
2022-11-25T07:15:54.691Z,51.323410
2022-11-25T07:16:54.630Z,51.323391
2022-11-25T07:17:54.650Z,51.323414
2022-11-25T07:18:54.594Z,51.323433
2022-11-25T07:19:54.583Z,51.323410
2022-11-25T07:20:54.565Z,51.323402
2022-11-25T07:21:54.560Z,51.323421
2022-11-25T07:22:54.541Z,51.323402
2022-11-25T07:23:54.497Z,51.323418
2022-11-25T07:24:54.482Z,51.323448
2022-11-25T07:25:54.467Z,51.323471
2022-11-25T07:26:54.472Z,51.323452
2022-11-25T07:27:54.457Z,51.323448
2022-11-25T07:28:54.436Z,51.323433
2022-11-25T07:30:29.180Z,51.323467
2022-11-25T07:31:27.085Z,51.323429
2022-11-25T07:31:56.357Z,51.323421
2022-11-25T07:32:54.383Z,51.323456
2022-11-25T07:33:54.337Z,51.323452
2022-11-25T07:34:54.463Z,51.323410
2022-11-25T07:35:54.278Z,51.323425
2022-11-25T07:36:56.486Z,51.323368
2022-11-25T07:37:54.291Z,51.323421
2022-11-25T07:38:54.276Z,51.323463
2022-11-25T07:39:54.205Z,51.323467
2022-11-25T07:40:54.233Z,51.323433
2022-11-25T07:41:54.187Z,51.323330
2022-11-25T07:42:54.193Z,51.323349
2022-11-25T07:43:54.137Z,51.323257
2022-11-25T07:44:54.185Z,51.323315
2022-11-25T07:45:54.174Z,51.323364
2022-11-25T07:46:54.182Z,51.323483
2022-11-25T07:47:54.084Z,51.323494
2022-11-25T07:48:54.034Z,51.323429
2022-11-25T07:49:54.034Z,51.323406
2022-11-25T07:50:53.997Z,51.323421
2022-11-25T07:51:54.001Z,51.323410
2022-11-25T07:52:53.991Z,51.323414
2022-11-25T07:53:53.943Z,51.323372
2022-11-25T07:54:53.929Z,51.323353
2022-11-25T07:55:53.907Z,51.323402
2022-11-25T07:56:53.911Z,51.323421
2022-11-25T07:57:53.890Z,51.323441
2022-11-25T07:58:53.845Z,51.323437
2022-11-25T07:59:53.829Z,51.323444
2022-11-25T08:00:53.812Z,51.323414
2022-11-25T08:01:54.008Z,51.323368
2022-11-25T08:02:53.909Z,51.323391
2022-11-25T08:03:53.762Z,51.323437
2022-11-25T08:04:53.736Z,51.323421
2022-11-25T08:05:53.728Z,51.323444
2022-11-25T08:06:53.700Z,51.323421
2022-11-25T08:07:53.778Z,51.323368
2022-11-25T08:08:53.676Z,51.323402
2022-11-25T08:09:53.690Z,51.323414
2022-11-25T08:10:53.632Z,51.323387
2022-11-25T08:11:53.626Z,51.323414
2022-11-25T08:12:53.633Z,51.323429
2022-11-25T08:13:53.585Z,51.323425
2022-11-25T08:14:53.556Z,51.323391
2022-11-25T08:15:53.632Z,51.323444
2022-11-25T08:16:53.519Z,51.323452
2022-11-25T08:17:53.524Z,51.323448
2022-11-25T08:18:53.481Z,51.323433
2022-11-25T08:19:53.510Z,51.323429
2022-11-25T08:20:53.447Z,51.323437
2022-11-25T08:21:53.430Z,51.323433
2022-11-25T08:22:53.410Z,51.323433
2022-11-25T08:23:53.411Z,51.323399
2022-11-25T08:24:53.409Z,51.323425
2022-11-25T08:25:53.368Z,51.323444
2022-11-25T08:26:53.336Z,51.323437
2022-11-25T08:27:53.350Z,51.323479
2022-11-25T08:28:53.299Z,51.323437
2022-11-25T08:29:53.284Z,51.323444
2022-11-25T08:30:53.293Z,51.323452
2022-11-25T08:31:53.248Z,51.323460
2022-11-25T08:32:53.237Z,51.323460
2022-11-25T08:33:54.238Z,51.323448
2022-11-25T08:34:53.209Z,51.323463
2022-11-25T08:35:53.173Z,51.323433
2022-11-25T08:36:53.156Z,51.323437
2022-11-25T08:37:53.139Z,51.323463
2022-11-25T08:38:53.146Z,51.323471
2022-11-25T08:39:53.868Z,51.323452
2022-11-25T08:40:54.091Z,51.323463
2022-11-25T08:41:53.072Z,51.323456
2022-11-25T08:42:53.052Z,51.323448
2022-11-25T08:43:53.057Z,51.323448
2022-11-25T08:44:53.015Z,51.323433
2022-11-25T08:45:53.007Z,51.323463
2022-11-25T08:46:53.031Z,51.323460
2022-11-25T08:47:52.968Z,51.323471
2022-11-25T08:48:52.975Z,51.323452
2022-11-25T08:49:52.932Z,51.323460
2022-11-25T08:50:52.912Z,51.323471
2022-11-25T08:51:52.903Z,51.323463
2022-11-25T08:52:52.883Z,51.323479
2022-11-25T08:53:52.891Z,51.323463
2022-11-25T08:54:52.838Z,51.323479
2022-11-25T08:55:52.818Z,51.323483
2022-11-25T08:56:52.805Z,51.323475
2022-11-25T08:57:52.791Z,51.323471
2022-11-25T08:58:52.800Z,51.323467
2022-11-25T08:59:52.750Z,51.323456
2022-11-25T09:00:52.734Z,51.323448
2022-11-25T09:01:52.869Z,51.323444
2022-11-25T09:02:52.756Z,51.323463
2022-11-25T09:03:52.705Z,51.323463
2022-11-25T09:04:52.664Z,51.323475
2022-11-25T09:05:52.650Z,51.323475
2022-11-25T09:06:52.633Z,51.323479
2022-11-25T09:07:52.717Z,51.323467
2022-11-25T09:08:52.616Z,51.323475
2022-11-25T09:09:52.586Z,51.323456
2022-11-25T09:10:52.639Z,51.323467
2022-11-25T09:11:52.530Z,51.323475
2022-11-25T09:12:52.517Z,51.323441
2022-11-25T09:13:53.594Z,51.323448
2022-11-25T09:14:52.482Z,51.323437
2022-11-25T09:15:52.530Z,51.323460
2022-11-25T09:16:52.450Z,51.323456
2022-11-25T09:17:52.436Z,51.323441
2022-11-25T09:18:55.879Z,51.323463
2022-11-25T09:19:53.395Z,51.323483
2022-11-25T09:20:52.382Z,51.323387
2022-11-25T09:21:52.367Z,51.323406
2022-11-25T09:22:52.338Z,51.323429
2022-11-25T09:23:52.345Z,51.323460
2022-11-25T09:24:52.306Z,51.323486
2022-11-25T09:25:52.285Z,51.323460
2022-11-25T09:26:52.268Z,51.323425
2022-11-25T09:27:52.258Z,51.323448
2022-11-25T09:28:52.268Z,51.323467
2022-11-25T09:29:52.211Z,51.323456
2022-11-25T09:30:52.279Z,51.323463
2022-11-25T09:31:54.945Z,51.323460
2022-11-25T09:32:53.228Z,51.323471
2022-11-25T09:33:52.176Z,51.323452
2022-11-25T09:34:52.131Z,51.323456
2022-11-25T09:35:52.107Z,51.323437
2022-11-25T09:36:52.116Z,51.323498
2022-11-25T09:37:52.067Z,51.323456
2022-11-25T09:38:52.072Z,51.323448
2022-11-25T09:39:52.042Z,51.323410
2022-11-25T09:40:52.026Z,51.323418
2022-11-25T09:41:51.994Z,51.323437
2022-11-25T09:42:51.984Z,51.323437
2022-11-25T09:43:51.984Z,51.323395
2022-11-25T09:44:51.945Z,51.323437
2022-11-25T09:45:51.986Z,51.323376
2022-11-25T09:46:51.968Z,51.323410
2022-11-25T09:47:57.286Z,51.323456
2022-11-25T09:48:53.898Z,51.323372
2022-11-25T09:49:51.852Z,51.323448
2022-11-25T09:50:51.836Z,51.323456
2022-11-25T09:51:51.821Z,51.323414
2022-11-25T09:52:51.801Z,51.323402
2022-11-25T09:53:51.804Z,51.323418
2022-11-25T09:54:51.763Z,51.323376
2022-11-25T09:55:52.611Z,51.323399
2022-11-25T09:56:51.727Z,51.323402
2022-11-25T09:57:56.399Z,51.323387
2022-11-25T09:58:52.728Z,51.323406
2022-11-25T09:59:51.682Z,51.323425
2022-11-25T10:00:51.674Z,51.323505
2022-11-25T10:01:51.679Z,51.323452
2022-11-25T10:02:51.746Z,51.323433
2022-11-25T10:03:51.619Z,51.323444
2022-11-25T10:04:51.578Z,51.323402
2022-11-25T10:05:52.955Z,51.323402
2022-11-25T10:06:55.476Z,51.323376
2022-11-25T10:07:52.521Z,51.323395
2022-11-25T10:08:51.545Z,51.323380
2022-11-25T10:09:51.494Z,51.323402
2022-11-25T10:10:51.468Z,51.323387
2022-11-25T10:11:51.477Z,51.323418
2022-11-25T10:12:51.429Z,51.323421
2022-11-25T10:13:51.450Z,51.323399
2022-11-25T10:14:51.401Z,51.323387
2022-11-25T10:15:51.432Z,51.323402
2022-11-25T10:16:51.867Z,51.323402
2022-11-25T10:17:52.344Z,51.323425
2022-11-25T10:18:55.166Z,51.323395
2022-11-25T10:19:51.317Z,51.323376
2022-11-25T10:20:51.298Z,51.323425
2022-11-25T10:21:51.390Z,51.323406
2022-11-25T10:22:51.269Z,51.323429
2022-11-25T10:23:51.289Z,51.323387
2022-11-25T10:24:51.617Z,51.323406
2022-11-25T10:25:51.551Z,51.323402
2022-11-25T10:26:51.342Z,51.323421
2022-11-25T10:27:52.183Z,51.323433
2022-11-25T10:28:51.195Z,51.323425
2022-11-25T10:29:51.158Z,51.323402
2022-11-25T10:30:51.198Z,51.323437
2022-11-25T10:31:51.131Z,51.323410
2022-11-25T10:32:51.094Z,51.323437
2022-11-25T10:33:51.094Z,51.323410
2022-11-25T10:34:51.728Z,51.323399
2022-11-25T10:35:51.037Z,51.323456
2022-11-25T10:36:51.012Z,51.323460
2022-11-25T10:37:50.994Z,51.323494
2022-11-25T10:38:51.004Z,51.323441
2022-11-25T10:39:50.957Z,51.323433
2022-11-25T10:40:50.950Z,51.323418
2022-11-25T10:41:50.926Z,51.323441
2022-11-25T10:42:50.904Z,51.323402
2022-11-25T10:43:50.916Z,51.323441
2022-11-25T10:44:50.869Z,51.323441
2022-11-25T10:45:50.886Z,51.323456
2022-11-25T10:47:13.010Z,51.323463
2022-11-25T10:47:52.882Z,51.323456
2022-11-25T10:48:50.794Z,51.323448
2022-11-25T10:49:50.781Z,51.323444
2022-11-25T10:50:50.792Z,51.323410
2022-11-25T10:51:50.753Z,51.323425
2022-11-25T10:52:50.723Z,51.323444
2022-11-25T10:53:50.733Z,51.323433
2022-11-25T10:54:50.684Z,51.323452
2022-11-25T10:55:51.700Z,51.323452
2022-11-25T10:56:50.652Z,51.323418
2022-11-25T10:57:50.635Z,51.323421
2022-11-25T10:58:50.769Z,51.323437
2022-11-25T10:59:50.616Z,51.323444
2022-11-25T11:00:50.710Z,51.323444
2022-11-25T11:01:50.981Z,51.323421
2022-11-25T11:02:51.154Z,51.323425
2022-11-25T11:03:50.539Z,51.323441
2022-11-25T11:04:50.580Z,51.323444
2022-11-25T11:06:32.882Z,51.323452
2022-11-25T11:06:50.497Z,51.323433
2022-11-25T11:07:50.503Z,51.323448
2022-11-25T11:08:50.462Z,51.323444
2022-11-25T11:10:32.326Z,51.323429
2022-11-25T11:10:57.138Z,51.323441
2022-11-25T11:11:52.527Z,51.323463
2022-11-25T11:13:31.304Z,51.323467
2022-11-25T11:13:50.380Z,51.323433
2022-11-25T11:20:18.891Z,51.323456
2022-11-25T11:21:18.899Z,51.323456
2022-11-25T11:22:18.852Z,51.323452
2022-11-25T11:23:18.846Z,51.323475
2022-11-25T11:24:18.844Z,51.323483
2022-11-25T11:25:18.888Z,51.323475
2022-11-25T11:26:18.779Z,51.323452
2022-11-25T11:27:18.791Z,51.323437
2022-11-25T11:28:18.746Z,51.323437
2022-11-25T11:29:18.757Z,51.323479